createdAt,value
2024-03-02T00:12:33.479Z,39.40
2024-03-02T08:40:28.486Z,26.35
2024-03-02T10:18:39.586Z,22.63
2024-03-02T10:21:26.880Z,23.48
2024-03-02T10:23:54.495Z,22.75
2024-03-02T10:26:22.253Z,22.02
2024-03-02T10:28:49.641Z,21.20
2024-03-02T10:31:19.720Z,21.33
2024-03-02T10:33:47.078Z,23.10
2024-03-02T10:36:14.526Z,22.90
2024-03-02T10:38:43.250Z,20.23
2024-03-02T10:41:10.601Z,20.45
2024-03-02T10:43:41.084Z,22.50
2024-03-02T10:46:11.628Z,19.77
2024-03-02T10:48:45.686Z,21.20
2024-03-02T10:51:14.672Z,21.63
2024-03-02T10:53:44.291Z,19.13
2024-03-02T10:56:20.310Z,19.85
2024-03-02T10:58:50.336Z,19.75
2024-03-02T11:01:18.620Z,21.90
2024-03-02T11:03:48.925Z,20.33
2024-03-02T11:06:16.650Z,20.60
2024-03-02T11:08:48.801Z,19.17
2024-03-02T11:11:23.339Z,21.02
2024-03-02T11:13:51.851Z,18.88
2024-03-02T11:16:40.357Z,18.67
2024-03-02T11:19:17.802Z,18.55
2024-03-02T11:21:48.456Z,19.52
2024-03-02T11:24:38.444Z,16.52
2024-03-02T11:27:10.155Z,17.40
2024-03-02T11:29:40.255Z,17.92
2024-03-02T11:32:41.157Z,17.30
2024-03-02T11:35:15.809Z,17.15
2024-03-02T11:37:48.213Z,18.30
2024-03-02T11:40:15.595Z,17.95
2024-03-02T11:47:02.421Z,18.23
2024-03-02T12:02:51.055Z,18.73
2024-03-02T12:05:38.937Z,18.50
2024-03-02T12:21:36.588Z,19.40
2024-03-02T12:23:17.829Z,20.30
2024-03-02T12:28:20.776Z,19.40
2024-03-02T13:51:04.944Z,20.50
2024-03-02T13:53:39.339Z,23.05
2024-03-02T13:56:07.036Z,21.08
2024-03-02T13:58:34.313Z,23.23
2024-03-02T14:01:02.710Z,21.40
2024-03-02T14:03:31.695Z,20.85
2024-03-02T14:05:59.624Z,21.05
2024-03-02T14:08:27.097Z,21.23
2024-03-02T14:10:55.820Z,20.60
2024-03-02T14:13:24.223Z,21.77
2024-03-02T14:15:51.685Z,21.92
2024-03-02T14:18:22.564Z,21.60
2024-03-02T14:21:01.355Z,21.67
2024-03-02T14:23:31.221Z,20.20
2024-03-02T14:26:00.692Z,20.27
2024-03-02T14:28:43.977Z,21.05
2024-03-02T14:31:19.463Z,21.27
2024-03-02T14:33:47.477Z,22.48
2024-03-02T14:36:17.316Z,22.48
2024-03-02T14:38:44.448Z,22.58
2024-03-02T14:41:12.359Z,22.48
2024-03-02T14:43:39.775Z,22.25
2024-03-02T14:46:10.253Z,22.35
2024-03-02T14:48:40.514Z,22.15
2024-03-02T14:51:08.252Z,22.60
2024-03-02T14:53:35.530Z,23.90
2024-03-02T14:56:05.474Z,23.00
2024-03-02T14:58:32.765Z,24.00
2024-03-02T15:01:00.185Z,24.00
2024-03-02T15:03:27.536Z,24.20
2024-03-02T15:05:55.163Z,23.38
2024-03-02T15:08:24.978Z,23.30
2024-03-02T15:10:52.310Z,23.00
2024-03-02T15:13:20.059Z,23.50
2024-03-02T15:15:47.753Z,24.55
2024-03-02T15:18:15.038Z,24.00
2024-03-02T15:20:42.246Z,24.92
2024-03-02T15:23:09.700Z,26.08
2024-03-02T15:25:37.172Z,24.98
2024-03-02T15:28:05.238Z,25.85
2024-03-02T15:30:32.550Z,26.00
2024-03-02T15:32:59.818Z,25.90
2024-03-02T15:35:27.710Z,26.80
2024-03-02T15:37:55.097Z,26.08
2024-03-02T15:40:22.643Z,26.25
2024-03-02T15:42:49.941Z,26.73
2024-03-02T15:45:17.418Z,26.00
2024-03-02T15:47:44.916Z,25.77
2024-03-02T15:50:12.969Z,26.30
2024-03-02T15:52:40.190Z,26.95
2024-03-02T15:55:08.144Z,27.00
2024-03-02T15:57:36.731Z,27.25
2024-03-02T16:00:06.750Z,28.33
2024-03-02T16:02:34.362Z,28.85
2024-03-02T16:05:01.512Z,28.65
2024-03-02T16:07:28.774Z,27.35
2024-03-02T16:09:56.049Z,27.42
2024-03-02T16:12:23.769Z,26.83
2024-03-02T16:14:50.972Z,27.50
2024-03-02T16:17:18.195Z,27.70
2024-03-02T16:19:45.991Z,27.88
2024-03-02T16:22:13.261Z,26.60
2024-03-02T16:24:45.971Z,27.05
2024-03-02T16:27:13.266Z,27.35
2024-03-02T16:29:40.775Z,27.70
2024-03-02T16:32:08.335Z,27.85
2024-03-02T16:34:35.927Z,26.83
2024-03-02T16:37:04.751Z,26.15
2024-03-02T16:39:32.592Z,26.75
2024-03-02T16:42:05.385Z,27.70
2024-03-02T16:44:32.639Z,27.42
2024-03-02T16:47:00.105Z,27.70
2024-03-02T16:49:28.259Z,28.30
2024-03-02T16:51:57.676Z,28.15
2024-03-02T16:54:26.489Z,28.58
2024-03-02T16:56:53.716Z,28.50
2024-03-02T16:59:25.466Z,29.15
2024-03-02T17:01:52.694Z,29.05
2024-03-02T17:04:29.031Z,29.30
2024-03-02T17:06:56.293Z,29.48
2024-03-02T17:09:26.858Z,29.23
2024-03-02T17:11:58.441Z,29.50
2024-03-02T17:14:28.092Z,29.10
2024-03-02T17:16:56.491Z,29.98
2024-03-02T17:19:32.210Z,30.25
2024-03-02T17:22:08.001Z,29.42
2024-03-02T17:24:42.549Z,30.77
2024-03-02T17:27:28.929Z,29.88
2024-03-02T17:29:56.088Z,31.83
2024-03-02T17:32:31.537Z,30.58
2024-03-02T17:35:12.711Z,30.80
2024-03-02T17:37:52.334Z,31.95
2024-03-02T17:40:21.933Z,32.38
2024-03-02T17:42:49.133Z,33.40
2024-03-02T17:45:19.473Z,34.22
2024-03-02T17:47:46.603Z,32.95
2024-03-02T17:50:13.818Z,35.50
2024-03-02T17:52:43.096Z,40.90
2024-03-02T17:55:14.002Z,36.65
2024-03-02T17:57:50.522Z,32.97
2024-03-02T18:00:26.335Z,32.38
2024-03-02T18:03:05.104Z,31.77
2024-03-02T18:05:35.485Z,32.15
2024-03-02T18:08:08.845Z,32.58
2024-03-02T18:10:37.953Z,32.75
2024-03-02T18:13:07.568Z,32.83
2024-03-02T18:15:41.388Z,33.00
2024-03-02T18:18:10.635Z,36.25
2024-03-02T18:20:41.122Z,34.05
2024-03-02T18:23:09.804Z,32.97
2024-03-02T18:25:44.352Z,32.97
2024-03-02T18:28:11.494Z,33.05
2024-03-02T18:30:38.949Z,33.08
2024-03-02T18:33:06.396Z,34.05
2024-03-02T18:35:50.334Z,33.92
2024-03-02T18:38:21.481Z,33.10
2024-03-02T18:40:53.244Z,32.70
2024-03-02T18:43:20.809Z,32.97
2024-03-02T18:45:52.274Z,34.88
2024-03-02T18:48:20.730Z,33.97
2024-03-02T18:50:50.065Z,34.97
2024-03-02T18:53:29.321Z,34.53
2024-03-02T18:55:58.013Z,33.22
2024-03-02T18:58:31.015Z,34.22
2024-03-02T19:01:00.523Z,33.30
2024-03-02T19:03:32.490Z,34.75
2024-03-02T19:06:06.170Z,34.10
2024-03-02T19:08:33.298Z,35.08
2024-03-02T19:11:01.348Z,33.42
2024-03-02T19:13:31.384Z,35.97
2024-03-02T19:16:01.392Z,35.55
2024-03-02T19:18:50.761Z,35.88
2024-03-02T19:21:20.151Z,34.55
2024-03-02T19:24:03.782Z,34.30
2024-03-02T19:26:31.009Z,34.72
2024-03-02T19:29:03.232Z,34.80
2024-03-02T19:31:36.693Z,35.35
2024-03-02T19:34:11.036Z,36.17
2024-03-02T19:36:38.294Z,35.45
2024-03-02T19:39:13.648Z,35.17
2024-03-02T19:41:45.010Z,34.58
2024-03-02T19:44:18.077Z,34.55
2024-03-02T19:46:45.227Z,33.47
2024-03-02T19:49:16.943Z,34.58
2024-03-02T19:51:44.489Z,34.80
2024-03-02T19:54:13.098Z,33.97
2024-03-02T19:56:40.407Z,33.53
2024-03-02T19:59:10.946Z,33.03
2024-03-02T20:01:38.522Z,35.80
2024-03-02T20:04:06.140Z,33.78
2024-03-02T20:06:33.456Z,35.05
2024-03-02T20:09:00.605Z,34.72
2024-03-02T20:11:31.697Z,34.58
2024-03-02T20:13:59.119Z,34.88
2024-03-02T20:16:26.687Z,36.25
2024-03-02T20:18:53.934Z,34.95
2024-03-02T20:21:21.357Z,35.10
2024-03-02T20:23:49.620Z,33.58
2024-03-02T20:26:19.095Z,35.42
2024-03-02T20:28:47.692Z,35.35
2024-03-02T20:31:15.550Z,34.70
2024-03-02T20:33:42.857Z,34.78
2024-03-02T20:36:14.901Z,34.17
2024-03-02T20:38:42.685Z,34.10
2024-03-02T20:41:19.892Z,35.38
2024-03-02T20:43:47.465Z,35.13
2024-03-02T20:46:14.874Z,35.22
2024-03-02T20:48:42.727Z,35.53
2024-03-02T20:51:10.279Z,35.28
2024-03-02T20:53:37.937Z,35.42
2024-03-02T20:56:05.889Z,36.25
2024-03-02T20:58:34.393Z,35.60
2024-03-02T21:01:01.488Z,35.75
2024-03-02T21:03:28.831Z,35.45
2024-03-02T21:05:55.997Z,35.30
2024-03-02T21:08:23.408Z,34.63
2024-03-02T21:10:50.795Z,34.33
2024-03-02T21:13:20.340Z,34.97
2024-03-02T21:15:48.893Z,34.55
2024-03-02T21:18:17.118Z,33.28
2024-03-02T21:20:44.583Z,32.72
2024-03-02T21:23:15.852Z,33.53
2024-03-02T21:25:43.358Z,34.10
2024-03-02T21:28:10.822Z,32.72
2024-03-02T21:30:38.382Z,32.00
2024-03-02T21:33:06.083Z,32.03
2024-03-02T21:35:33.859Z,32.33
2024-03-02T21:38:04.183Z,31.48
2024-03-02T21:40:32.469Z,31.85
2024-03-02T21:43:00.892Z,31.60
2024-03-02T21:45:28.331Z,32.13
2024-03-02T21:47:55.447Z,32.50
2024-03-02T21:50:22.761Z,31.83
2024-03-02T21:52:54.766Z,30.23
2024-03-02T21:55:22.680Z,31.70
2024-03-02T21:57:49.858Z,31.83
2024-03-02T22:00:18.961Z,31.67
2024-03-02T22:02:46.100Z,31.80
2024-03-02T22:05:13.507Z,31.35
2024-03-02T22:07:41.042Z,30.92
2024-03-02T22:10:08.700Z,30.65
2024-03-02T22:12:36.150Z,30.85
2024-03-02T22:15:03.449Z,30.73
2024-03-02T22:17:30.514Z,31.35
2024-03-02T22:19:57.946Z,31.65
2024-03-02T22:22:25.322Z,31.77
2024-03-02T22:24:52.813Z,31.73
2024-03-02T22:27:20.209Z,30.50
2024-03-02T22:29:47.334Z,30.83
2024-03-02T22:32:14.449Z,31.15
2024-03-02T22:34:41.554Z,30.90
2024-03-02T22:37:09.509Z,32.05
2024-03-02T22:39:36.772Z,31.70
2024-03-02T22:42:04.056Z,31.30
2024-03-02T22:44:33.380Z,32.13
2024-03-02T22:47:00.749Z,31.20
2024-03-02T22:49:29.050Z,32.50
2024-03-02T22:51:56.464Z,33.25
2024-03-02T22:54:25.192Z,33.22
2024-03-02T22:56:52.509Z,32.58
2024-03-02T22:59:19.894Z,34.28
2024-03-02T23:01:47.366Z,33.22
2024-03-02T23:04:14.886Z,33.63
2024-03-02T23:06:42.493Z,32.42
2024-03-02T23:09:09.932Z,32.67
2024-03-02T23:11:37.121Z,34.20
2024-03-02T23:14:06.259Z,33.63
2024-03-02T23:16:36.014Z,34.45
2024-03-02T23:19:03.385Z,33.55
2024-03-02T23:21:30.589Z,32.92
2024-03-02T23:23:58.994Z,34.13
2024-03-02T23:26:26.604Z,34.22
2024-03-02T23:28:53.685Z,35.35
2024-03-02T23:31:21.065Z,34.08
2024-03-02T23:33:50.460Z,34.42
2024-03-02T23:36:17.616Z,33.92
2024-03-02T23:38:44.768Z,35.03
2024-03-02T23:41:12.669Z,33.42
2024-03-02T23:43:40.823Z,34.22
2024-03-02T23:46:09.353Z,35.80
2024-03-02T23:48:37.392Z,35.50
2024-03-02T23:51:05.056Z,34.42
2024-03-02T23:53:32.517Z,35.47
2024-03-02T23:56:12.733Z,34.70
2024-03-02T23:58:40.697Z,35.45
